Terminal Aerodrome Forecast
Issued by NWS Cleveland, OH

Home | Current Version | Previous Version | Graphics & Text | Print | Product List | Glossary Off
Versions: 1 2 3 4 5 6 7 8 9 10 11 12 13 14 15 16 17 18 19 20 21 22 23 24 25 26

000
FTUS41 KCLE 031200 AAA
TAFYNG
TAF AMD
KYNG 031244Z 0313/0412 13011KT P6SM OVC060
     FM031600 15012KT 4SM -FZRASNPL BR SCT015 OVC030
     FM032000 17012KT 2SM -RA BR OVC005
     FM040300 21014G20KT 4SM -SHRA BR OVC006
     FM040900 28012KT 4SM -SN BR OVC012=

USA.gov is the U.S. government's official web portal to all federal, state and local government web resources and services.